Weather

BOSCOMBE DOWN (EGDM)

METAR

EGDM 182050Z AUTO 20008KT 9999 OVC020/// 18/15 Q1021

TAF

TAF EGDM 130455Z 1306/1324 17015KT 9999 -RA BKN015 TEMPO 1306/1312 17018G28KT 6000 -RADZ BKN010 PROB30 TEMPO 1306/1315 3000 RADZ BKN006 BECMG 1312/1315 BKN008

BRISTOL AIRPORT (EGGD)

METAR

EGGD 182150Z AUTO 23006KT 9999 FEW002 BKN005 OVC013 17/17 Q1021

TAF

TAF AMD EGGD 182021Z 1820/1918 25008KT 2000 BR BKN003 TEMPO 1820/1912 1200 DZ PROB40 TEMPO 1820/1909 0300 FG BKN000 BECMG 1909/1912 9999 NSW FEW003 BKN016 TEMPO 1912/1918 4000 -DZ SCT003 BKN010 PROB30 TEMPO 1912/1918 1200 DZ BKN003

BRIZE NORTON (EGVN)

METAR

EGVN 182150Z 22005KT 9999 4000SW HZ FEW008 BKN012 18/17 Q1020

TAF

TAF EGVN 182007Z 1821/1921 CNL= TAF LELL 182009Z 1815/1915 CNL

OXFORD (EGTK)

METAR

EGTK 181950Z 23011KT 9999 BKN018 19/16 Q1020

Pressure charts

Click to see pressure charts
(redidrection to MetOffice website)